Goodville, Texas
Current Conditions -  °F | °C
As of 3:55 PM on Friday 31 Oct 2014 (Local Time) from KTPL Reporting Station
Clear Clear  
Wind Chill: 72°   Ceiling: Unl
Heat Index: 72°   Visibility: 10mi
Dew Point: 37°   Wind: 18mph
Humidity: 29%   Direction: 350°N
Pressure: 30.24"   Gusts: NA
Location:  31.1912°N, 97.0719°W
Report Text: KTPL 312055Z AUTO 35016KT 10SM CLR 22/03 A3024 RMK AO1 57020
Loading
Personal Weather Stations






























Interactive Weather Map
Tropical Storm Tracking
New forecast layout! Learn more

10-Day Weather Forecast

Advertisements
Track Severe Weather on mobile